Time;durP1;ratioP1;P1;durP2;ratioP2;P2;SDS_P1;SDS_P2;PMS_P1;PMS_P2;Temp;Humidity;BMP_temperature;BMP_pressure;BME280_temperature;BME280_humidity;BME280_pressure;Samples;Min_cycle;Max_cycle;Signal;HPM_P1;HPM_P2
2021/08/26 00:07:35;;;;;;;7.13;6.53;;;;;;;19.28;100.00;96003.06;5007733;28;20223;-83
2021/08/26 00:10:06;;;;;;;7.03;6.43;;;;;;;19.36;100.00;96004.63;5008111;28;20253;-83
2021/08/26 00:12:34;;;;;;;7.63;7.00;;;;;;;18.93;100.00;96021.41;5036614;28;20197;-83
2021/08/26 00:15:01;;;;;;;7.60;6.90;;;;;;;18.68;100.00;96027.50;5069386;28;20196;-83
2021/08/26 00:17:29;;;;;;;7.33;6.67;;;;;;;18.69;100.00;96017.66;5069361;28;20296;-83
2021/08/26 00:19:57;;;;;;;7.63;7.13;;;;;;;18.53;100.00;96016.31;5069298;28;20604;-83
2021/08/26 00:22:24;;;;;;;7.57;6.97;;;;;;;18.33;100.00;96036.94;5069660;28;20198;-82
2021/08/26 00:24:53;;;;;;;7.90;7.30;;;;;;;18.21;100.00;96042.09;5069386;28;20203;-83
2021/08/26 00:27:23;;;;;;;7.03;6.47;;;;;;;18.47;100.00;96038.50;5069175;28;20295;-83
2021/08/26 00:29:50;;;;;;;7.40;6.73;;;;;;;18.27;100.00;96028.75;5069419;28;20197;-83
2021/08/26 00:32:17;;;;;;;6.93;6.43;;;;;;;18.64;100.00;96034.28;5069121;28;20280;-83
2021/08/26 00:34:45;;;;;;;7.20;6.53;;;;;;;18.48;100.00;96043.59;5069401;28;20185;-83
2021/08/26 00:37:13;;;;;;;7.30;6.67;;;;;;;18.46;100.00;96051.00;5068704;28;20207;-83
2021/08/26 00:39:41;;;;;;;6.80;6.23;;;;;;;18.44;100.00;96049.56;5069304;28;20593;-83
2021/08/26 00:42:08;;;;;;;7.53;6.93;;;;;;;18.34;100.00;96046.53;5069199;28;20197;-82
2021/08/26 00:44:37;;;;;;;6.83;6.23;;;;;;;18.30;100.00;96049.63;5069099;28;20600;-83
2021/08/26 00:47:04;;;;;;;6.90;6.30;;;;;;;18.32;100.00;96046.75;5069083;27;20189;-82
2021/08/26 00:49:32;;;;;;;7.30;6.70;;;;;;;18.51;100.00;96050.34;5068922;28;20204;-83
2021/08/26 00:51:59;;;;;;;7.83;6.40;;;;;;;18.36;100.00;96053.28;5068572;28;20239;-82
2021/08/26 00:54:28;;;;;;;6.87;6.27;;;;;;;18.36;100.00;96058.59;5068543;28;20295;-83
2021/08/26 00:56:56;;;;;;;7.43;6.83;;;;;;;18.34;100.00;96049.19;5068725;28;20246;-83
2021/08/26 00:59:26;;;;;;;7.53;6.67;;;;;;;18.48;100.00;96032.94;5068412;28;20780;-82
2021/08/26 01:02:02;;;;;;;7.27;6.67;;;;;;;18.76;100.00;96027.25;5069140;28;20221;-83
2021/08/26 01:04:34;;;;;;;7.23;6.63;;;;;;;18.87;100.00;96022.28;5068583;28;20189;-83
2021/08/26 01:07:06;;;;;;;7.90;7.30;;;;;;;18.86;100.00;96026.78;5068633;28;20325;-83
2021/08/26 01:09:44;;;;;;;8.67;6.90;;;;;;;18.83;100.00;96021.09;5068666;28;20228;-83
2021/08/26 01:12:15;;;;;;;7.03;6.43;;;;;;;18.72;100.00;96020.75;5068363;28;20189;-82
2021/08/26 01:14:43;;;;;;;7.53;6.87;;;;;;;18.72;100.00;96028.72;5068739;28;20671;-83
2021/08/26 01:17:17;;;;;;;7.37;6.77;;;;;;;18.43;100.00;96026.66;5068589;27;20201;-83
2021/08/26 01:19:44;;;;;;;7.77;7.10;;;;;;;18.48;100.00;96021.50;5068810;28;20224;-83
2021/08/26 01:22:12;;;;;;;7.83;7.20;;;;;;;18.70;100.00;96011.31;5068110;28;20212;-82
2021/08/26 01:24:42;;;;;;;7.53;6.83;;;;;;;18.85;100.00;96011.84;5068491;28;20197;-83
2021/08/26 01:27:13;;;;;;;7.73;7.13;;;;;;;18.96;100.00;96008.47;5068328;28;20237;-83
2021/08/26 01:29:41;;;;;;;7.20;6.60;;;;;;;19.02;100.00;96009.47;5068648;28;20276;-83
2021/08/26 01:32:09;;;;;;;7.90;7.20;;;;;;;18.90;100.00;96017.31;5068279;28;20233;-82
2021/08/26 01:34:36;;;;;;;7.53;6.90;;;;;;;18.76;100.00;96008.63;5068274;28;20681;-83
2021/08/26 01:37:04;;;;;;;7.40;6.70;;;;;;;18.60;100.00;95995.84;5068195;28;20292;-83
2021/08/26 01:39:31;;;;;;;6.97;6.40;;;;;;;18.42;100.00;95993.06;5068115;28;20237;-83
2021/08/26 01:41:58;;;;;;;7.27;6.60;;;;;;;18.34;100.00;95996.00;5068205;28;20700;-83
2021/08/26 01:44:28;;;;;;;8.07;7.37;;;;;;;18.34;100.00;96004.78;5068144;28;20668;-83
2021/08/26 01:46:56;;;;;;;9.00;7.70;;;;;;;18.41;100.00;95996.75;5068166;28;20708;-83
2021/08/26 01:49:23;;;;;;;8.63;7.83;;;;;;;18.39;100.00;95996.16;5067856;28;20201;-82
2021/08/26 01:51:51;;;;;;;11.17;7.93;;;;;;;18.48;100.00;96008.19;5067954;28;20197;-83
2021/08/26 01:54:18;;;;;;;7.93;7.23;;;;;;;18.53;100.00;95993.22;5068223;28;20193;-83
2021/08/26 01:56:45;;;;;;;8.10;7.50;;;;;;;18.43;100.00;96000.03;5068106;28;20193;-82
2021/08/26 01:59:13;;;;;;;8.73;7.93;;;;;;;18.32;100.00;96003.34;5067918;28;20208;-82
2021/08/26 02:01:41;;;;;;;8.43;7.63;;;;;;;18.38;100.00;95998.00;5068008;28;20313;-83
2021/08/26 02:04:09;;;;;;;7.97;7.37;;;;;;;18.39;100.00;96002.31;5068563;28;20574;-83
2021/08/26 02:06:36;;;;;;;8.93;8.20;;;;;;;18.33;100.00;96003.16;5071241;27;20201;-83
2021/08/26 02:09:03;;;;;;;8.73;7.93;;;;;;;18.37;100.00;95992.91;5071557;28;20620;-83
2021/08/26 02:11:31;;;;;;;8.13;7.33;;;;;;;18.19;100.00;95997.09;5071805;28;20672;-83
2021/08/26 02:13:58;;;;;;;7.70;7.03;;;;;;;18.18;100.00;95997.28;5071213;28;20212;-83
2021/08/26 02:16:25;;;;;;;8.53;7.83;;;;;;;18.03;100.00;96001.06;5071186;28;20276;-82
2021/08/26 02:18:54;;;;;;;8.47;7.73;;;;;;;17.98;100.00;95994.75;5071202;28;20239;-83
2021/08/26 02:21:21;;;;;;;8.70;7.90;;;;;;;18.08;100.00;95986.28;5071563;28;20600;-83
2021/08/26 02:23:52;;;;;;;9.00;8.20;;;;;;;17.98;100.00;95987.59;5070851;28;20197;-83
2021/08/26 02:26:20;;;;;;;9.93;8.97;;;;;;;17.89;100.00;95996.00;5071216;28;20272;-83
2021/08/26 02:28:47;;;;;;;8.83;8.03;;;;;;;18.00;100.00;95990.84;5071253;28;20590;-83
2021/08/26 02:31:14;;;;;;;10.23;8.77;;;;;;;17.92;100.00;95987.63;5071223;28;20215;-82
2021/08/26 02:33:42;;;;;;;8.73;7.90;;;;;;;17.82;100.00;95996.84;5070882;28;20204;-82
2021/08/26 02:36:11;;;;;;;9.47;8.57;;;;;;;17.78;100.00;95987.66;5071410;28;20197;-83
2021/08/26 02:38:38;;;;;;;9.07;8.17;;;;;;;17.80;100.00;95990.94;5070897;28;20288;-82
2021/08/26 02:41:05;;;;;;;8.90;8.10;;;;;;;17.83;100.00;95987.84;5071227;27;20602;-83
2021/08/26 02:43:33;;;;;;;10.03;9.23;;;;;;;17.76;100.00;95987.03;5070767;28;20624;-82
2021/08/26 02:46:00;;;;;;;9.63;8.67;;;;;;;17.80;100.00;95985.63;5070954;27;20197;-83
2021/08/26 02:48:28;;;;;;;9.00;8.30;;;;;;;17.90;100.00;95982.50;5070818;27;20201;-83
2021/08/26 02:50:55;;;;;;;9.47;8.73;;;;;;;17.72;100.00;95977.03;5070788;28;20250;-83
2021/08/26 02:53:24;;;;;;;9.40;8.63;;;;;;;17.77;100.00;95982.56;5070553;28;20211;-82
2021/08/26 02:55:51;;;;;;;9.57;8.80;;;;;;;17.76;100.00;95986.22;5071040;28;20578;-83
2021/08/26 02:58:18;;;;;;;9.37;8.57;;;;;;;17.70;100.00;95974.59;5070853;28;20577;-83
2021/08/26 03:00:46;;;;;;;9.10;8.20;;;;;;;17.66;100.00;95975.19;5070694;28;20225;-83
2021/08/26 03:03:13;;;;;;;9.27;8.57;;;;;;;17.63;100.00;95978.28;5070636;27;20193;-82
2021/08/26 03:05:40;;;;;;;8.50;7.80;;;;;;;17.62;100.00;95971.34;5070808;28;20269;-83
2021/08/26 03:08:08;;;;;;;7.87;7.17;;;;;;;17.57;100.00;95983.41;5070185;28;20256;-82
2021/08/26 03:10:37;;;;;;;8.20;7.47;;;;;;;17.56;100.00;95983.59;5070353;28;20201;-82
2021/08/26 03:13:04;;;;;;;8.17;7.53;;;;;;;17.68;100.00;95976.63;5070086;28;20205;-82
2021/08/26 03:15:32;;;;;;;7.43;6.83;;;;;;;17.69;100.00;95972.94;5070323;28;20769;-83
2021/08/26 03:17:59;;;;;;;8.17;7.57;;;;;;;17.76;100.00;95980.91;5070406;28;20276;-83
2021/08/26 03:20:26;;;;;;;8.63;7.93;;;;;;;17.78;100.00;95984.19;5070063;28;20201;-83
2021/08/26 03:22:54;;;;;;;8.47;7.27;;;;;;;17.72;100.00;95988.47;5070201;28;20204;-82
2021/08/26 03:25:21;;;;;;;7.20;6.60;;;;;;;17.76;100.00;95995.03;5070343;28;20195;-83
2021/08/26 03:27:49;;;;;;;7.33;6.63;;;;;;;17.74;100.00;95994.41;5061512;27;20223;-83
2021/08/26 03:30:17;;;;;;;8.67;7.87;;;;;;;17.70;100.00;96003.81;5049839;28;20202;-82
2021/08/26 03:32:44;;;;;;;8.23;7.40;;;;;;;17.64;100.00;96002.00;5050120;28;20202;-83
2021/08/26 03:35:11;;;;;;;8.60;7.50;;;;;;;17.64;100.00;96003.84;5050051;28;20694;-83
2021/08/26 03:37:38;;;;;;;7.77;7.00;;;;;;;17.57;100.00;96006.53;5049781;28;20240;-82
2021/08/26 03:40:07;;;;;;;8.77;7.97;;;;;;;17.52;100.00;96003.66;5050128;28;20198;-83
2021/08/26 03:42:34;;;;;;;8.97;8.17;;;;;;;17.52;100.00;95998.34;5050125;28;20225;-82
2021/08/26 03:45:03;;;;;;;9.13;8.27;;;;;;;17.56;100.00;95991.56;5049860;28;20202;-82
2021/08/26 03:47:30;;;;;;;10.20;9.30;;;;;;;17.51;100.00;95996.72;5052201;28;20198;-82
2021/08/26 03:49:58;;;;;;;9.90;9.00;;;;;;;17.47;100.00;95993.66;5048573;28;20733;-82
2021/08/26 03:52:25;;;;;;;9.83;8.93;;;;;;;17.39;100.00;95995.72;5055202;28;20287;-82
2021/08/26 03:54:52;;;;;;;10.27;9.33;;;;;;;17.37;100.00;95995.13;5051812;28;20578;-82
2021/08/26 03:57:19;;;;;;;9.33;8.57;;;;;;;17.35;100.00;95996.16;5048492;28;20201;-82
2021/08/26 03:59:47;;;;;;;9.33;8.53;;;;;;;17.44;100.00;96002.03;5049862;28;20281;-82
2021/08/26 04:02:16;;;;;;;9.00;8.27;;;;;;;17.40;100.00;95997.38;5049483;28;20232;-82
2021/08/26 04:04:43;;;;;;;10.00;9.10;;;;;;;17.52;100.00;96001.81;5049932;28;20573;-82
2021/08/26 04:07:11;;;;;;;9.77;8.87;;;;;;;17.44;100.00;96006.53;5048980;28;20644;-82
2021/08/26 04:09:38;;;;;;;10.17;9.17;;;;;;;17.47;100.00;96006.13;5049567;27;20258;-81
2021/08/26 04:12:06;;;;;;;10.23;9.20;;;;;;;17.41;100.00;96001.63;5067190;27;20585;-81
2021/08/26 04:14:33;;;;;;;9.80;8.90;;;;;;;17.48;100.00;96000.59;5069659;28;20197;-81
2021/08/26 04:17:00;;;;;;;10.17;8.90;;;;;;;17.51;100.00;96005.50;5069526;27;20212;-81
2021/08/26 04:19:29;;;;;;;10.43;9.57;;;;;;;17.61;100.00;96002.41;5069557;28;20645;-81
2021/08/26 04:21:56;;;;;;;9.57;8.67;;;;;;;17.77;100.00;96014.47;5069414;28;20315;-81
2021/08/26 04:24:23;;;;;;;10.23;9.33;;;;;;;17.85;100.00;96013.41;5068983;28;20641;-80
2021/08/26 04:26:51;;;;;;;10.10;8.50;;;;;;;17.68;100.00;96016.50;5066834;28;20291;-81
2021/08/26 04:29:18;;;;;;;10.07;8.93;;;;;;;17.62;100.00;96019.97;5054083;28;20246;-81
2021/08/26 04:31:45;;;;;;;9.37;8.57;;;;;;;17.63;100.00;96018.97;5049543;28;20277;-81
2021/08/26 04:34:13;;;;;;;8.73;8.03;;;;;;;17.51;100.00;96023.28;5048728;28;20206;-81
2021/08/26 04:36:41;;;;;;;8.53;7.83;;;;;;;17.54;100.00;96018.38;5051195;28;20205;-81
2021/08/26 04:39:09;;;;;;;9.67;8.13;;;;;;;17.50;100.00;96026.97;5068878;28;20634;-81
2021/08/26 04:41:36;;;;;;;9.07;8.17;;;;;;;17.53;100.00;96021.25;5069219;28;20277;-81
2021/08/26 04:44:03;;;;;;;8.80;7.97;;;;;;;17.55;100.00;96024.50;5069000;28;20204;-81
2021/08/26 04:46:31;;;;;;;8.40;7.53;;;;;;;17.59;100.00;96031.03;5068702;28;20204;-81
2021/08/26 04:48:58;;;;;;;8.20;7.50;;;;;;;17.58;100.00;96034.72;5068769;28;20201;-81
2021/08/26 04:51:25;;;;;;;9.87;8.47;;;;;;;17.57;100.00;96031.25;5069249;28;20219;-81
2021/08/26 04:53:54;;;;;;;9.97;8.17;;;;;;;17.64;100.00;96030.41;5068823;28;20596;-81
2021/08/26 04:56:21;;;;;;;9.10;8.20;;;;;;;17.65;100.00;96027.53;5069156;28;20614;-81
2021/08/26 04:58:49;;;;;;;9.93;7.77;;;;;;;17.70;100.00;96021.59;5068631;28;20257;-81
2021/08/26 05:01:16;;;;;;;7.97;7.27;;;;;;;17.81;100.00;96016.50;5068682;28;20700;-81
2021/08/26 05:03:43;;;;;;;8.10;7.37;;;;;;;17.93;100.00;96016.63;5068369;28;20244;-81
2021/08/26 05:06:11;;;;;;;10.00;7.97;;;;;;;18.03;100.00;96019.66;5068732;28;20203;-81
2021/08/26 05:08:38;;;;;;;8.20;7.50;;;;;;;18.29;100.00;96012.59;5068395;28;20233;-81
2021/08/26 05:11:07;;;;;;;10.40;7.60;;;;;;;18.43;100.00;96006.16;5069291;28;20204;-81
2021/08/26 05:13:34;;;;;;;8.60;7.77;;;;;;;18.59;100.00;96012.00;5068586;28;20261;-81
2021/08/26 05:16:01;;;;;;;8.50;7.60;;;;;;;18.58;100.00;96011.19;5068606;28;20210;-81
2021/08/26 05:18:29;;;;;;;9.20;8.33;;;;;;;18.62;100.00;96001.72;5068387;28;20665;-81
2021/08/26 05:20:56;;;;;;;8.23;7.53;;;;;;;18.65;100.00;95998.66;5068608;28;20209;-81
2021/08/26 05:23:23;;;;;;;9.67;8.77;;;;;;;18.48;100.00;96000.19;5068120;28;20224;-81
2021/08/26 05:25:50;;;;;;;8.50;7.80;;;;;;;18.45;100.00;96004.09;5068610;28;20287;-81
2021/08/26 05:28:19;;;;;;;8.93;8.13;;;;;;;18.46;100.00;95999.59;5068245;28;20328;-81
2021/08/26 05:30:46;;;;;;;9.97;9.07;;;;;;;18.50;100.00;96000.81;5068644;28;20201;-81
2021/08/26 05:33:14;;;;;;;10.27;9.40;;;;;;;18.73;100.00;95993.09;5068182;28;20309;-82
2021/08/26 05:35:41;;;;;;;10.20;9.30;;;;;;;18.89;100.00;96001.59;5068457;28;20242;-81
2021/08/26 05:38:08;;;;;;;10.93;10.00;;;;;;;19.10;100.00;95995.06;5068252;28;20197;-81
2021/08/26 05:40:35;;;;;;;9.70;8.80;;;;;;;19.21;100.00;95997.81;5070870;28;20197;-81
2021/08/26 05:43:03;;;;;;;11.03;9.93;;;;;;;19.42;100.00;95996.56;5071599;28;20227;-81
2021/08/26 05:45:32;;;;;;;10.60;9.70;;;;;;;19.56;100.00;95994.59;5071750;28;20651;-81
2021/08/26 05:47:59;;;;;;;9.87;8.87;;;;;;;19.22;100.00;96004.78;5071657;28;20257;-81
2021/08/26 05:50:27;;;;;;;9.50;8.67;;;;;;;19.40;100.00;96000.53;5072028;28;20197;-81
2021/08/26 05:52:54;;;;;;;10.00;9.10;;;;;;;19.34;100.00;95998.72;5071530;28;20252;-81
2021/08/26 05:55:21;;;;;;;10.37;9.57;;;;;;;19.55;100.00;95998.28;5071799;28;20203;-81
2021/08/26 05:57:48;;;;;;;10.63;9.73;;;;;;;19.77;100.00;96003.22;5070808;28;20258;-82
2021/08/26 06:00:17;;;;;;;11.43;10.03;;;;;;;20.00;100.00;96002.53;5070549;28;20212;-81
2021/08/26 06:02:46;;;;;;;12.37;11.17;;;;;;;20.03;100.00;96007.44;5070903;28;20224;-81
2021/08/26 06:05:13;;;;;;;13.20;12.07;;;;;;;20.13;100.00;96008.53;5071678;28;20197;-81
2021/08/26 06:07:40;;;;;;;12.03;10.83;;;;;;;20.27;100.00;96003.03;5071036;27;20225;-81
2021/08/26 06:10:09;;;;;;;10.67;9.70;;;;;;;20.33;100.00;96002.94;5071518;28;20197;-82
2021/08/26 06:12:40;;;;;;;11.50;10.27;;;;;;;20.53;100.00;96016.00;5070982;28;20661;-81
2021/08/26 06:15:10;;;;;;;10.57;9.67;;;;;;;20.61;100.00;96028.25;5071463;28;20602;-81
2021/08/26 06:17:38;;;;;;;13.00;11.80;;;;;;;20.70;100.00;96031.41;5071384;28;20230;-81
2021/08/26 06:20:12;;;;;;;12.27;11.17;;;;;;;20.80;100.00;96031.66;5071343;28;20189;-81
2021/08/26 06:22:39;;;;;;;10.83;9.93;;;;;;;20.88;100.00;96040.13;5071261;28;20210;-81
2021/08/26 06:25:08;;;;;;;10.27;9.47;;;;;;;20.95;100.00;96053.41;5071718;27;20582;-81
2021/08/26 06:27:36;;;;;;;9.43;8.53;;;;;;;21.06;100.00;96057.97;5071292;28;20253;-82
2021/08/26 06:30:03;;;;;;;9.23;8.37;;;;;;;21.19;100.00;96050.78;5071475;28;20306;-81
2021/08/26 06:32:31;;;;;;;10.47;9.47;;;;;;;21.48;100.00;96055.25;5070883;28;20211;-81
2021/08/26 06:34:58;;;;;;;10.27;9.37;;;;;;;21.65;100.00;96055.38;5071065;28;20193;-81
2021/08/26 06:37:27;;;;;;;11.17;10.27;;;;;;;21.67;100.00;96055.94;5070900;28;20201;-81
2021/08/26 06:39:54;;;;;;;11.43;10.33;;;;;;;21.89;100.00;96048.16;5070763;28;20244;-81
2021/08/26 06:42:22;;;;;;;17.50;13.83;;;;;;;22.04;100.00;96055.66;5070725;28;20313;-81
2021/08/26 06:44:49;;;;;;;9.87;8.93;;;;;;;22.07;100.00;96068.59;5071223;28;20250;-81
2021/08/26 06:47:16;;;;;;;9.33;8.63;;;;;;;22.19;100.00;96057.88;5071058;28;20197;-81
2021/08/26 06:49:44;;;;;;;8.93;8.13;;;;;;;22.42;100.00;96062.34;5070749;28;20193;-81
2021/08/26 06:52:11;;;;;;;10.30;9.30;;;;;;;22.71;100.00;96061.28;5070504;28;20576;-81
2021/08/26 06:54:40;;;;;;;8.70;8.00;;;;;;;22.78;100.00;96061.13;5070918;28;20288;-81
2021/08/26 06:57:07;;;;;;;9.10;8.20;;;;;;;22.83;100.00;96063.13;5070860;28;20581;-81
2021/08/26 06:59:35;;;;;;;8.10;7.50;;;;;;;22.89;100.00;96062.13;5070877;28;20228;-81
2021/08/26 07:02:02;;;;;;;8.87;8.10;;;;;;;22.79;100.00;96076.16;5070193;28;20241;-81
2021/08/26 07:04:29;;;;;;;8.67;7.73;;;;;;;23.11;100.00;96075.69;5071035;27;20194;-81
2021/08/26 07:06:57;;;;;;;7.80;7.20;;;;;;;23.24;100.00;96073.50;5070312;28;20332;-82
2021/08/26 07:09:25;;;;;;;8.20;7.57;;;;;;;23.50;100.00;96077.41;5070468;28;20192;-81
2021/08/26 07:11:54;;;;;;;8.40;7.70;;;;;;;24.05;100.00;96078.47;5070484;28;20219;-81
2021/08/26 07:14:21;;;;;;;8.63;7.90;;;;;;;24.10;100.00;96096.53;5070355;28;20233;-81
2021/08/26 07:16:48;;;;;;;9.43;8.40;;;;;;;23.91;100.00;96071.84;5070356;28;20197;-82
2021/08/26 07:19:16;;;;;;;9.93;9.13;;;;;;;23.79;100.00;96069.25;5070569;28;20557;-81
2021/08/26 07:21:44;;;;;;;10.33;9.40;;;;;;;23.77;100.00;96068.72;5070004;28;20725;-81
2021/08/26 07:24:11;;;;;;;8.90;8.00;;;;;;;23.99;100.00;96074.09;5070193;28;20213;-82
2021/08/26 07:26:38;;;;;;;9.63;8.70;;;;;;;23.86;100.00;96063.72;5070263;28;20228;-82
2021/08/26 07:29:07;;;;;;;9.17;8.37;;;;;;;23.93;100.00;96075.09;5070095;28;20288;-82
2021/08/26 07:31:34;;;;;;;9.27;8.43;;;;;;;24.30;100.00;96091.41;5070132;28;20588;-82
2021/08/26 07:34:02;;;;;;;10.13;9.13;;;;;;;24.48;100.00;96092.19;5069727;28;20197;-82
2021/08/26 07:36:29;;;;;;;9.30;8.40;;;;;;;24.71;100.00;96096.50;5070474;28;20201;-82
2021/08/26 07:38:56;;;;;;;8.67;7.87;;;;;;;24.63;100.00;96093.19;5069919;28;20280;-82
2021/08/26 07:41:26;;;;;;;9.33;8.53;;;;;;;24.61;100.00;96089.94;5070034;28;20201;-82
2021/08/26 07:43:54;;;;;;;9.37;8.67;;;;;;;24.70;100.00;96093.00;5070124;28;20213;-82
2021/08/26 07:46:23;;;;;;;9.70;8.83;;;;;;;25.03;100.00;96096.56;5069723;28;20211;-82
2021/08/26 07:48:50;;;;;;;9.17;8.37;;;;;;;24.79;100.00;96090.66;5069990;28;20288;-82
2021/08/26 07:51:17;;;;;;;10.07;8.90;;;;;;;25.09;100.00;96096.34;5069941;28;20190;-83
2021/08/26 07:53:45;;;;;;;8.90;8.20;;;;;;;25.27;100.00;96097.88;5069983;28;20632;-82
2021/08/26 07:56:12;;;;;;;8.63;7.93;;;;;;;25.10;100.00;96100.66;5069550;28;20800;-82
2021/08/26 07:58:39;;;;;;;8.67;7.87;;;;;;;25.33;100.00;96096.88;5069562;28;20200;-82
2021/08/26 08:01:07;;;;;;;9.17;8.37;;;;;;;25.51;100.00;96105.63;5069705;28;20255;-82
2021/08/26 08:03:35;;;;;;;8.67;7.97;;;;;;;25.79;100.00;96096.41;5068855;28;20394;-82
2021/08/26 08:06:05;;;;;;;8.90;8.17;;;;;;;26.23;100.00;96104.22;5069613;28;20201;-83
2021/08/26 08:08:33;;;;;;;8.83;7.93;;;;;;;26.25;100.00;96113.66;5069183;27;20614;-82
2021/08/26 08:11:00;;;;;;;9.15;8.45;;;;;;;26.04;100.00;96114.63;5069561;28;20228;-82
2021/08/26 08:13:27;;;;;;;9.15;8.45;;;;;;;25.67;100.00;96118.13;5069377;28;20657;-83
2021/08/26 08:15:55;;;;;;;9.37;7.80;;;;;;;25.61;100.00;96119.16;5069832;28;20201;-83
2021/08/26 08:18:22;;;;;;;9.27;8.30;;;;;;;25.23;100.00;96125.56;5069180;28;20284;-82
2021/08/26 08:20:51;;;;;;;9.67;8.87;;;;;;;24.96;100.00;96122.81;5069706;28;20210;-83
2021/08/26 08:23:18;;;;;;;9.50;8.47;;;;;;;24.59;100.00;96102.81;5069459;28;20667;-83
2021/08/26 08:25:46;;;;;;;9.47;8.67;;;;;;;24.91;100.00;96089.47;5069630;28;20201;-83
2021/08/26 08:28:14;;;;;;;10.23;9.30;;;;;;;25.05;100.00;96097.13;5068958;28;20287;-83
2021/08/26 08:30:43;;;;;;;10.30;9.40;;;;;;;25.06;100.00;96094.16;5069440;27;20586;-83
2021/08/26 08:33:11;;;;;;;9.80;9.03;;;;;;;24.80;100.00;96074.28;5069147;27;20197;-82
2021/08/26 08:35:38;;;;;;;10.57;9.63;;;;;;;25.43;100.00;96080.00;5069104;27;20203;-83
2021/08/26 08:38:07;;;;;;;9.87;9.17;;;;;;;25.17;100.00;96075.47;5069131;27;20196;-82
2021/08/26 08:40:35;;;;;;;11.13;10.07;;;;;;;25.10;100.00;96076.44;5069116;28;20197;-82
2021/08/26 08:43:02;;;;;;;10.47;8.80;;;;;;;25.15;100.00;96075.72;5068795;28;20221;-82
2021/08/26 08:45:30;;;;;;;8.60;7.97;;;;;;;24.84;100.00;96075.41;5069040;28;20197;-82
2021/08/26 08:47:59;;;;;;;10.23;9.33;;;;;;;24.60;100.00;96069.50;5068558;28;20638;-82
2021/08/26 08:50:27;;;;;;;10.67;9.57;;;;;;;25.76;100.00;96062.72;5069050;28;20200;-82
2021/08/26 08:52:56;;;;;;;9.37;8.47;;;;;;;26.31;100.00;96058.72;5068750;28;20232;-82
2021/08/26 08:55:24;;;;;;;11.23;10.13;;;;;;;26.24;100.00;96050.06;5068710;28;20201;-82
2021/08/26 08:57:52;;;;;;;9.90;9.10;;;;;;;26.63;100.00;96052.38;5069010;28;20585;-82
2021/08/26 09:00:21;;;;;;;11.52;10.38;;;;;;;26.56;100.00;96062.63;5069117;28;20204;-82
2021/08/26 09:02:48;;;;;;;10.63;9.50;;;;;;;26.74;100.00;96078.31;5068931;28;20683;-82
2021/08/26 09:05:17;;;;;;;9.85;9.02;;;;;;;26.93;100.00;96094.00;5068529;28;20617;-82
2021/08/26 09:07:44;;;;;;;9.65;8.75;;;;;;;26.83;100.00;96104.75;5068505;28;20245;-82
2021/08/26 09:10:12;;;;;;;11.55;10.65;;;;;;;26.68;100.00;96095.56;5068717;28;20272;-82
2021/08/26 09:12:52;;;;;;;10.05;8.93;;;;;;;25.60;100.00;96102.19;5068463;28;20196;-82
2021/08/26 09:15:23;;;;;;;11.38;10.20;;;;;;;25.42;100.00;96101.75;5072250;27;20237;-82
2021/08/26 09:17:51;;;;;;;10.10;9.30;;;;;;;25.25;100.00;96096.50;5072265;28;20280;-82
2021/08/26 09:20:21;;;;;;;9.90;9.20;;;;;;;25.31;100.00;96098.97;5072341;27;20193;-82
2021/08/26 09:22:49;;;;;;;10.93;9.90;;;;;;;25.71;100.00;96099.59;5072058;28;20308;-82
2021/08/26 09:25:25;;;;;;;11.50;10.50;;;;;;;26.37;100.00;96091.91;5071966;28;20197;-81
2021/08/26 09:27:54;;;;;;;10.93;10.03;;;;;;;26.44;100.00;96081.69;5072230;27;20224;-82
2021/08/26 09:30:21;;;;;;;10.68;9.70;;;;;;;26.57;100.00;96069.66;5072437;28;20193;-82
2021/08/26 09:32:57;;;;;;;11.50;10.32;;;;;;;26.73;100.00;96082.06;5072091;27;20197;-82
2021/08/26 09:35:29;;;;;;;10.43;9.63;;;;;;;27.15;100.00;96086.50;5071907;28;20635;-82
2021/08/26 09:37:58;;;;;;;11.00;10.05;;;;;;;27.34;100.00;96088.69;5071891;28;20268;-82
2021/08/26 09:40:27;;;;;;;10.45;9.45;;;;;;;27.55;100.00;96084.91;5071955;28;20197;-81
2021/08/26 09:43:01;;;;;;;11.93;10.75;;;;;;;27.32;100.00;96086.25;5071484;28;20267;-82
2021/08/26 09:45:30;;;;;;;10.57;9.63;;;;;;;27.20;100.00;96096.50;5071983;28;20189;-82
2021/08/26 09:48:09;;;;;;;10.48;9.68;;;;;;;26.67;100.00;96085.84;5071797;28;20200;-82
2021/08/26 09:50:39;;;;;;;10.13;9.23;;;;;;;26.93;100.00;96085.91;5071960;27;20283;-82
2021/08/26 09:53:07;;;;;;;10.40;9.60;;;;;;;27.89;100.00;96073.56;5071360;28;20305;-81
2021/08/26 09:55:53;;;;;;;11.25;10.25;;;;;;;28.05;100.00;96075.13;5071735;28;20204;-82
2021/08/26 09:58:24;;;;;;;9.93;8.93;;;;;;;27.79;100.00;96081.69;5071660;27;20665;-82
2021/08/26 10:01:06;;;;;;;10.50;9.57;;;;;;;27.91;100.00;96066.78;5071838;27;20273;-82
2021/08/26 10:03:33;;;;;;;9.45;8.65;;;;;;;27.92;100.00;96070.31;5071211;27;20307;-82
2021/08/26 10:06:01;;;;;;;9.57;8.80;;;;;;;27.21;100.00;96063.84;5071713;27;20645;-82
2021/08/26 10:08:31;;;;;;;8.38;7.68;;;;;;;26.95;100.00;96068.38;5071311;28;20231;-82
2021/08/26 10:11:00;;;;;;;9.25;8.55;;;;;;;26.67;100.00;96063.44;5071866;28;20585;-82
2021/08/26 10:13:30;;;;;;;11.90;10.82;;;;;;;26.58;100.00;96059.66;5071367;28;20275;-82
2021/08/26 10:15:58;;;;;;;12.68;10.55;;;;;;;26.37;100.00;96058.75;5071786;28;20212;-82
2021/08/26 10:18:27;;;;;;;10.48;9.57;;;;;;;25.99;100.00;96052.66;5071219;28;20189;-82
2021/08/26 10:20:55;;;;;;;9.60;8.80;;;;;;;25.90;100.00;96054.22;5071737;27;20656;-82
2021/08/26 10:23:23;;;;;;;9.60;8.75;;;;;;;25.60;100.00;96042.19;5071389;28;20229;-82
2021/08/26 10:25:54;;;;;;;10.85;9.90;;;;;;;25.69;100.00;96043.28;5070652;28;20597;-82
2021/08/26 10:28:22;;;;;;;9.05;8.35;;;;;;;25.50;100.00;96045.59;5071131;28;20245;-82
2021/08/26 10:30:51;;;;;;;9.63;8.90;;;;;;;25.56;100.00;96041.06;5071353;27;20200;-82
2021/08/26 10:33:24;;;;;;;10.57;9.63;;;;;;;25.64;100.00;96034.41;5071227;28;20275;-82
2021/08/26 10:36:04;;;;;;;11.40;10.20;;;;;;;25.49;100.00;96029.72;5071131;28;20254;-82
2021/08/26 10:38:32;;;;;;;10.75;9.75;;;;;;;25.45;100.00;96034.78;5071051;27;20192;-82
2021/08/26 10:41:20;;;;;;;9.25;8.45;;;;;;;25.60;100.00;96034.91;5071337;28;20197;-82
2021/08/26 10:43:56;;;;;;;9.80;8.90;;;;;;;25.61;100.00;96046.50;5070616;28;20217;-82
2021/08/26 10:46:50;;;;;;;9.87;9.07;;;;;;;25.62;100.00;96040.03;5070789;28;20185;-81
2021/08/26 10:49:19;;;;;;;12.27;8.70;;;;;;;25.68;100.00;96043.56;5070725;28;20292;-81
2021/08/26 10:51:48;;;;;;;10.43;9.45;;;;;;;25.49;100.00;96035.09;5071179;28;20205;-81
2021/08/26 10:54:28;;;;;;;10.73;9.83;;;;;;;25.47;100.00;96029.97;5070470;28;20280;-82
2021/08/26 10:56:55;;;;;;;9.90;9.10;;;;;;;25.37;100.00;96030.72;5071131;28;20185;-82
2021/08/26 10:59:30;;;;;;;9.50;8.70;;;;;;;25.33;100.00;96029.59;5070719;28;20730;-81
2021/08/26 11:02:00;;;;;;;10.90;10.00;;;;;;;25.24;100.00;96027.66;5071023;27;20279;-81
2021/08/26 11:04:32;;;;;;;10.00;9.20;;;;;;;25.08;100.00;96024.81;5070458;27;20267;-81
2021/08/26 11:07:01;;;;;;;9.73;8.93;;;;;;;25.10;100.00;96024.53;5070466;27;20233;-82
2021/08/26 11:09:45;;;;;;;10.63;9.73;;;;;;;25.12;100.00;96034.03;5070935;28;20599;-82
2021/08/26 11:12:28;;;;;;;13.73;10.87;;;;;;;25.11;100.00;96035.09;5070637;28;20217;-81
2021/08/26 11:14:58;;;;;;;11.50;10.10;;;;;;;24.92;100.00;96042.69;5070558;27;20579;-82
2021/08/26 11:17:35;;;;;;;11.10;10.20;;;;;;;24.99;100.00;96044.34;5070693;27;20201;-82
2021/08/26 11:20:29;;;;;;;10.70;9.80;;;;;;;24.90;100.00;96047.53;5070491;27;20208;-81
2021/08/26 11:23:11;;;;;;;10.77;9.77;;;;;;;24.95;100.00;96041.38;5070269;28;20629;-81
2021/08/26 11:25:38;;;;;;;11.97;10.87;;;;;;;24.86;100.00;96045.56;5070760;28;20196;-82
2021/08/26 11:28:29;;;;;;;11.10;10.00;;;;;;;24.85;100.00;96043.97;5070238;27;20276;-81
2021/08/26 11:31:14;;;;;;;12.00;10.83;;;;;;;24.65;100.00;96039.19;5070466;28;20201;-82
2021/08/26 11:33:43;;;;;;;12.80;11.17;;;;;;;24.54;100.00;96030.22;5070113;28;20185;-82
2021/08/26 11:36:13;;;;;;;10.97;10.07;;;;;;;24.51;100.00;96022.66;5070272;28;20201;-82